Aérodrome :
LOGIN :

S'inscrire | Disclaimer

   EN    FR    IT 

 










Légende :    VFR   VFR Marginal   IFR   IFR Intensif   IFR Très Intensif
Visi : 
Plafond : 
>= 8 km
>= 3000ft
5 à 8 km
1000 à 3000 ft
1500m à 5 km
500 à 1000 ft
800 à 1500m
200 à 500 ft
< 800m
< 200 ft
Symboles :   Orages  Brouillard  Fortes neiges  Fortes précipitations  Vent > 20 kt
SIGMETs :   Divers  Orages  Givrage  Turbulence  Onde Orograph.  Cendres Volcan.






- Altitude de l'aérodrome : 2731 ft
- Code IATA : LPY


LFHP - Le Puy Loudes

DERNIER METAR :
  • 141200Z AUTO 28010G24KT 220V320 9999 BKN032 BKN048 13/07 Q1008

METARs EXPIRÉS :
  • 141130Z AUTO 28010KT 240V310 9999 BKN028 BKN034 BKN041 11/07 Q1008
  • 141100Z AUTO 29010KT 260V330 9999 BKN026 OVC035 12/07 Q1008
  • 141030Z AUTO 28012KT 230V320 9999 BKN029 BKN042 BKN050 11/07 Q1008
  • 141000Z AUTO 27012G23KT 240V310 9999 SCT027 BKN033 BKN062 11/07 Q1008
  • 140930Z AUTO 28012KT 220V310 9999 BKN032 11/06 Q1007

Prévision TAF périmée.



MET'MAP, la Météo Aéronautique d'un coup d'oeil ! - Copyright ORBIFLY Décembre 2007 - Disclaimer

ORBIFLY MET'MAP TEAM :

Programmation & Développement : Alexandra Zaïnal
Sur une idée originale de : Baudouin d'Aumeries
Assistance à la programmation : Marc-Olivier Méhu
Soutien technique & logistique : Manuel Goepfert

Contact : metmap@orbifly.com




SOURCES & CREDITS :

   NOAA